sensor_id;sensor_type;location;lat;lon;timestamp;pressure;altitude;pressure_sealevel;temperature;humidity
19736;BME280;32064;49.310;8.646;2022-08-19T00:01:09;100070.22;;;24.75;62.79
19736;BME280;32064;49.310;8.646;2022-08-19T00:03:35;100062.97;;;24.75;63.82
19736;BME280;32064;49.310;8.646;2022-08-19T00:06:00;100061.50;;;24.73;63.35
19736;BME280;32064;49.310;8.646;2022-08-19T00:08:26;100060.28;;;24.69;63.31
19736;BME280;32064;49.310;8.646;2022-08-19T00:10:51;100056.16;;;24.66;63.79
19736;BME280;32064;49.310;8.646;2022-08-19T00:13:17;100052.00;;;24.63;64.17
19736;BME280;32064;49.310;8.646;2022-08-19T00:15:43;100057.97;;;24.65;63.89
19736;BME280;32064;49.310;8.646;2022-08-19T00:18:10;100054.28;;;24.67;64.12
19736;BME280;32064;49.310;8.646;2022-08-19T00:20:35;100055.28;;;24.65;64.30
19736;BME280;32064;49.310;8.646;2022-08-19T00:23:06;100054.47;;;24.65;64.19
19736;BME280;32064;49.310;8.646;2022-08-19T00:25:31;100059.03;;;24.64;63.57
19736;BME280;32064;49.310;8.646;2022-08-19T00:27:57;100063.59;;;24.64;64.13
19736;BME280;32064;49.310;8.646;2022-08-19T00:30:24;100055.50;;;24.64;64.00
19736;BME280;32064;49.310;8.646;2022-08-19T00:32:52;100054.47;;;24.65;63.84
19736;BME280;32064;49.310;8.646;2022-08-19T00:35:20;100049.50;;;24.62;63.33
19736;BME280;32064;49.310;8.646;2022-08-19T00:37:47;100053.44;;;24.59;63.62
19736;BME280;32064;49.310;8.646;2022-08-19T00:40:13;100039.97;;;24.59;63.36
19736;BME280;32064;49.310;8.646;2022-08-19T00:42:39;100034.81;;;24.58;63.70
19736;BME280;32064;49.310;8.646;2022-08-19T00:45:11;100043.91;;;24.57;63.57
19736;BME280;32064;49.310;8.646;2022-08-19T00:47:37;100043.91;;;24.57;63.52
19736;BME280;32064;49.310;8.646;2022-08-19T00:50:04;100051.81;;;24.52;63.80
19736;BME280;32064;49.310;8.646;2022-08-19T00:52:32;100051.38;;;24.48;63.38
19736;BME280;32064;49.310;8.646;2022-08-19T00:55:00;100054.06;;;24.48;62.97
19736;BME280;32064;49.310;8.646;2022-08-19T00:57:30;100054.91;;;24.49;63.96
19736;BME280;32064;49.310;8.646;2022-08-19T00:59:58;100063.38;;;24.52;63.28
19736;BME280;32064;49.310;8.646;2022-08-19T01:02:25;100043.94;;;24.50;63.99
19736;BME280;32064;49.310;8.646;2022-08-19T01:04:52;100038.34;;;24.52;64.00
19736;BME280;32064;49.310;8.646;2022-08-19T01:07:17;100025.72;;;24.52;64.17
19736;BME280;32064;49.310;8.646;2022-08-19T01:09:43;100031.31;;;24.51;63.71
19736;BME280;32064;49.310;8.646;2022-08-19T01:12:09;100037.09;;;24.48;63.28
19736;BME280;32064;49.310;8.646;2022-08-19T01:14:36;100035.22;;;24.48;63.23
19736;BME280;32064;49.310;8.646;2022-08-19T01:17:03;100044.34;;;24.47;63.49
19736;BME280;32064;49.310;8.646;2022-08-19T01:19:34;100045.59;;;24.45;63.46
19736;BME280;32064;49.310;8.646;2022-08-19T01:22:34;100047.22;;;24.39;63.39
19736;BME280;32064;49.310;8.646;2022-08-19T01:25:05;100051.19;;;24.43;63.40
19736;BME280;32064;49.310;8.646;2022-08-19T01:27:38;100052.41;;;24.40;63.40
19736;BME280;32064;49.310;8.646;2022-08-19T01:30:04;100047.84;;;24.41;64.64
19736;BME280;32064;49.310;8.646;2022-08-19T01:32:31;100044.31;;;24.40;63.80
19736;BME280;32064;49.310;8.646;2022-08-19T01:34:56;100046.81;;;24.35;63.58
19736;BME280;32064;49.310;8.646;2022-08-19T01:37:21;100042.03;;;24.31;64.23
19736;BME280;32064;49.310;8.646;2022-08-19T01:39:47;100036.88;;;24.29;64.30
19736;BME280;32064;49.310;8.646;2022-08-19T01:42:13;100029.22;;;24.26;63.97
19736;BME280;32064;49.310;8.646;2022-08-19T01:44:39;100031.06;;;24.26;64.12
19736;BME280;32064;49.310;8.646;2022-08-19T01:47:07;100041.81;;;24.26;64.69
19736;BME280;32064;49.310;8.646;2022-08-19T01:49:34;100045.34;;;24.19;64.53
19736;BME280;32064;49.310;8.646;2022-08-19T01:52:00;100049.69;;;24.20;64.44
19736;BME280;32064;49.310;8.646;2022-08-19T01:54:26;100061.06;;;24.23;64.99
19736;BME280;32064;49.310;8.646;2022-08-19T01:56:53;100069.75;;;24.25;64.26
19736;BME280;32064;49.310;8.646;2022-08-19T01:59:21;100071.81;;;24.23;64.57
19736;BME280;32064;49.310;8.646;2022-08-19T02:01:48;100070.78;;;24.24;64.30
19736;BME280;32064;49.310;8.646;2022-08-19T02:04:13;100067.88;;;24.25;64.53
19736;BME280;32064;49.310;8.646;2022-08-19T02:06:39;100067.06;;;24.25;64.56
19736;BME280;32064;49.310;8.646;2022-08-19T02:09:06;100069.13;;;24.23;64.59
19736;BME280;32064;49.310;8.646;2022-08-19T02:11:34;100060.84;;;24.17;64.63
19736;BME280;32064;49.310;8.646;2022-08-19T02:14:03;100065.84;;;24.20;65.24
19736;BME280;32064;49.310;8.646;2022-08-19T02:16:31;100071.22;;;24.20;65.28
19736;BME280;32064;49.310;8.646;2022-08-19T02:18:56;100063.75;;;24.16;65.17
19736;BME280;32064;49.310;8.646;2022-08-19T02:21:26;100063.75;;;24.16;65.57
19736;BME280;32064;49.310;8.646;2022-08-19T02:23:52;100066.44;;;24.16;65.55
19736;BME280;32064;49.310;8.646;2022-08-19T02:26:17;100067.47;;;24.15;65.32
19736;BME280;32064;49.310;8.646;2022-08-19T02:28:43;100069.53;;;24.13;65.66
19736;BME280;32064;49.310;8.646;2022-08-19T02:31:14;100064.34;;;24.11;65.72
19736;BME280;32064;49.310;8.646;2022-08-19T02:33:40;100061.88;;;24.10;65.77
19736;BME280;32064;49.310;8.646;2022-08-19T02:36:07;100055.88;;;24.01;65.82
19736;BME280;32064;49.310;8.646;2022-08-19T02:38:33;100058.53;;;23.94;65.86
19736;BME280;32064;49.310;8.646;2022-08-19T02:41:02;100052.13;;;23.95;65.82
19736;BME280;32064;49.310;8.646;2022-08-19T02:43:29;100058.53;;;23.94;66.22
19736;BME280;32064;49.310;8.646;2022-08-19T02:45:55;100051.91;;;23.97;65.99
19736;BME280;32064;49.310;8.646;2022-08-19T02:48:22;100058.75;;;24.00;66.62
19736;BME280;32064;49.310;8.646;2022-08-19T02:50:51;100048.41;;;23.96;66.08
19736;BME280;32064;49.310;8.646;2022-08-19T02:53:25;100052.72;;;23.97;66.07
19736;BME280;32064;49.310;8.646;2022-08-19T02:55:51;100048.22;;;23.98;66.18
19736;BME280;32064;49.310;8.646;2022-08-19T02:58:18;100044.66;;;23.97;66.85
19736;BME280;32064;49.310;8.646;2022-08-19T03:00:46;100050.06;;;23.97;66.23
19736;BME280;32064;49.310;8.646;2022-08-19T03:03:12;100041.16;;;23.97;66.06
19736;BME280;32064;49.310;8.646;2022-08-19T03:05:38;100032.50;;;23.95;65.89
19736;BME280;32064;49.310;8.646;2022-08-19T03:08:04;100033.72;;;23.92;66.04
19736;BME280;32064;49.310;8.646;2022-08-19T03:10:31;100036.19;;;23.94;66.60
19736;BME280;32064;49.310;8.646;2022-08-19T03:12:57;100032.47;;;23.88;66.51
19736;BME280;32064;49.310;8.646;2022-08-19T03:15:23;100032.25;;;23.83;65.86
19736;BME280;32064;49.310;8.646;2022-08-19T03:17:48;100040.94;;;23.79;66.33
19736;BME280;32064;49.310;8.646;2022-08-19T03:20:13;100035.53;;;23.72;66.95
19736;BME280;32064;49.310;8.646;2022-08-19T03:22:39;100039.63;;;23.68;66.79
19736;BME280;32064;49.310;8.646;2022-08-19T03:25:04;100042.50;;;23.66;66.32
19736;BME280;32064;49.310;8.646;2022-08-19T03:27:30;100055.31;;;23.64;66.38
19736;BME280;32064;49.310;8.646;2022-08-19T03:29:55;100058.00;;;23.64;66.71
19736;BME280;32064;49.310;8.646;2022-08-19T03:32:21;100068.94;;;23.63;66.44
19736;BME280;32064;49.310;8.646;2022-08-19T03:34:47;100068.13;;;23.62;66.67
19736;BME280;32064;49.310;8.646;2022-08-19T03:37:12;100075.53;;;23.60;66.92
19736;BME280;32064;49.310;8.646;2022-08-19T03:39:39;100075.94;;;23.57;67.34
19736;BME280;32064;49.310;8.646;2022-08-19T03:42:05;100065.03;;;23.59;66.69
19736;BME280;32064;49.310;8.646;2022-08-19T03:44:31;100063.97;;;23.60;67.83
19736;BME280;32064;49.310;8.646;2022-08-19T03:46:59;100058.81;;;23.58;67.73
19736;BME280;32064;49.310;8.646;2022-08-19T03:49:28;100066.88;;;23.58;67.29
19736;BME280;32064;49.310;8.646;2022-08-19T03:51:56;100062.53;;;23.57;67.47
19736;BME280;32064;49.310;8.646;2022-08-19T03:54:23;100062.75;;;23.56;67.99
19736;BME280;32064;49.310;8.646;2022-08-19T03:56:51;100068.50;;;23.52;67.95
19736;BME280;32064;49.310;8.646;2022-08-19T03:59:21;100073.25;;;23.50;67.90
19736;BME280;32064;49.310;8.646;2022-08-19T04:01:51;100055.25;;;23.44;67.07
19736;BME280;32064;49.310;8.646;2022-08-19T04:04:17;100056.47;;;23.42;67.59
19736;BME280;32064;49.310;8.646;2022-08-19T04:06:43;100064.72;;;23.40;67.54
19736;BME280;32064;49.310;8.646;2022-08-19T04:09:10;100068.03;;;23.36;67.66
19736;BME280;32064;49.310;8.646;2022-08-19T04:11:39;100069.25;;;23.33;68.58
19736;BME280;32064;49.310;8.646;2022-08-19T04:14:14;100064.69;;;23.27;68.25
19736;BME280;32064;49.310;8.646;2022-08-19T04:16:41;100060.31;;;23.26;68.45
19736;BME280;32064;49.310;8.646;2022-08-19T04:19:08;100062.00;;;23.27;67.81
19736;BME280;32064;49.310;8.646;2022-08-19T04:21:34;100070.66;;;23.29;68.10
19736;BME280;32064;49.310;8.646;2022-08-19T04:23:59;100076.00;;;23.22;68.47
19736;BME280;32064;49.310;8.646;2022-08-19T04:26:30;100074.53;;;23.20;68.32
19736;BME280;32064;49.310;8.646;2022-08-19T04:28:58;100081.16;;;23.24;68.87
19736;BME280;32064;49.310;8.646;2022-08-19T04:31:27;100083.22;;;23.22;69.03
19736;BME280;32064;49.310;8.646;2022-08-19T04:33:55;100070.22;;;23.19;68.87
19736;BME280;32064;49.310;8.646;2022-08-19T04:36:27;100066.88;;;23.17;69.32
19736;BME280;32064;49.310;8.646;2022-08-19T04:38:55;100064.38;;;23.15;69.08
19736;BME280;32064;49.310;8.646;2022-08-19T04:41:21;100062.75;;;23.14;68.32
19736;BME280;32064;49.310;8.646;2022-08-19T04:44:06;100063.97;;;23.12;68.57
19736;BME280;32064;49.310;8.646;2022-08-19T04:46:32;100066.47;;;23.13;69.20
19736;BME280;32064;49.310;8.646;2022-08-19T04:48:59;100069.16;;;23.13;69.71
19736;BME280;32064;49.310;8.646;2022-08-19T04:51:25;100081.34;;;23.16;69.11
19736;BME280;32064;49.310;8.646;2022-08-19T04:53:51;100077.41;;;23.18;69.09
19736;BME280;32064;49.310;8.646;2022-08-19T04:56:19;100071.84;;;23.20;68.40
19736;BME280;32064;49.310;8.646;2022-08-19T04:58:46;100078.69;;;23.22;68.92
19736;BME280;32064;49.310;8.646;2022-08-19T05:01:13;100080.16;;;23.25;69.28
19736;BME280;32064;49.310;8.646;2022-08-19T05:03:39;100072.50;;;23.28;68.38
19736;BME280;32064;49.310;8.646;2022-08-19T05:06:09;100074.81;;;23.31;68.55
19736;BME280;32064;49.310;8.646;2022-08-19T05:08:37;100086.19;;;23.34;68.82
19736;BME280;32064;49.310;8.646;2022-08-19T05:11:16;100088.03;;;23.33;69.22
19736;BME280;32064;49.310;8.646;2022-08-19T05:13:43;100101.06;;;23.36;68.31
19736;BME280;32064;49.310;8.646;2022-08-19T05:16:11;100099.22;;;23.37;68.20
19736;BME280;32064;49.310;8.646;2022-08-19T05:18:37;100096.94;;;23.40;68.98
19736;BME280;32064;49.310;8.646;2022-08-19T05:21:22;100092.63;;;23.46;67.91
19736;BME280;32064;49.310;8.646;2022-08-19T05:24:06;100085.81;;;23.43;67.83
19736;BME280;32064;49.310;8.646;2022-08-19T05:26:38;100092.22;;;23.42;67.89
19736;BME280;32064;49.310;8.646;2022-08-19T05:29:04;100102.97;;;23.49;67.57
19736;BME280;32064;49.310;8.646;2022-08-19T05:31:30;100106.94;;;23.53;67.41
19736;BME280;32064;49.310;8.646;2022-08-19T05:33:57;100110.22;;;23.55;67.04
19736;BME280;32064;49.310;8.646;2022-08-19T05:36:28;100112.72;;;23.57;68.00
19736;BME280;32064;49.310;8.646;2022-08-19T05:38:54;100116.28;;;23.64;67.43
19736;BME280;32064;49.310;8.646;2022-08-19T05:41:20;100131.59;;;23.70;66.99
19736;BME280;32064;49.310;8.646;2022-08-19T05:43:49;100126.69;;;23.73;67.29
19736;BME280;32064;49.310;8.646;2022-08-19T05:46:18;100137.03;;;23.77;67.35
19736;BME280;32064;49.310;8.646;2022-08-19T05:48:43;100133.75;;;23.81;67.40
19736;BME280;32064;49.310;8.646;2022-08-19T05:51:09;100139.72;;;23.83;66.67
19736;BME280;32064;49.310;8.646;2022-08-19T05:53:35;100154.03;;;23.84;66.17
19736;BME280;32064;49.310;8.646;2022-08-19T05:56:10;100157.72;;;23.83;67.31
19736;BME280;32064;49.310;8.646;2022-08-19T05:58:36;100153.63;;;23.93;66.13
19736;BME280;32064;49.310;8.646;2022-08-19T06:01:03;100160.06;;;23.99;66.47
19736;BME280;32064;49.310;8.646;2022-08-19T06:03:32;100161.53;;;24.08;66.07
19736;BME280;32064;49.310;8.646;2022-08-19T06:05:59;100165.50;;;24.12;66.28
19736;BME280;32064;49.310;8.646;2022-08-19T06:08:26;100177.06;;;24.13;66.35
19736;BME280;32064;49.310;8.646;2022-08-19T06:10:52;100181.81;;;24.17;66.12
19736;BME280;32064;49.310;8.646;2022-08-19T06:13:20;100179.19;;;24.24;66.00
19736;BME280;32064;49.310;8.646;2022-08-19T06:15:46;100176.72;;;24.29;65.85
19736;BME280;32064;49.310;8.646;2022-08-19T06:18:13;100174.84;;;24.30;66.19
19736;BME280;32064;49.310;8.646;2022-08-19T06:20:39;100168.84;;;24.34;65.74
19736;BME280;32064;49.310;8.646;2022-08-19T06:23:05;100172.16;;;24.36;65.57
19736;BME280;32064;49.310;8.646;2022-08-19T06:25:30;100189.13;;;24.37;65.27
19736;BME280;32064;49.310;8.646;2022-08-19T06:27:56;100189.97;;;24.37;65.52
19736;BME280;32064;49.310;8.646;2022-08-19T06:30:21;100192.25;;;24.40;64.81
19736;BME280;32064;49.310;8.646;2022-08-19T06:32:47;100189.34;;;24.42;64.90
19736;BME280;32064;49.310;8.646;2022-08-19T06:35:12;100186.09;;;24.47;64.96
19736;BME280;32064;49.310;8.646;2022-08-19T06:37:40;100184.63;;;24.51;64.93
19736;BME280;32064;49.310;8.646;2022-08-19T06:40:07;100193.75;;;24.56;64.89
19736;BME280;32064;49.310;8.646;2022-08-19T06:42:37;100196.66;;;24.61;65.03
19736;BME280;32064;49.310;8.646;2022-08-19T06:45:04;100189.63;;;24.74;64.74
19736;BME280;32064;49.310;8.646;2022-08-19T06:47:30;100199.59;;;24.80;64.01
19736;BME280;32064;49.310;8.646;2022-08-19T06:49:58;100204.38;;;24.91;63.94
19736;BME280;32064;49.310;8.646;2022-08-19T06:52:27;100203.94;;;25.01;63.47
19736;BME280;32064;49.310;8.646;2022-08-19T06:54:52;100201.47;;;25.06;63.17
19736;BME280;32064;49.310;8.646;2022-08-19T06:57:19;100198.34;;;25.09;63.09
19736;BME280;32064;49.310;8.646;2022-08-19T06:59:44;100188.00;;;25.13;63.20
19736;BME280;32064;49.310;8.646;2022-08-19T07:02:10;100196.31;;;25.18;62.74
19736;BME280;32064;49.310;8.646;2022-08-19T07:04:36;100192.16;;;25.22;62.50
19736;BME280;32064;49.310;8.646;2022-08-19T07:07:09;100186.78;;;25.15;61.95
19736;BME280;32064;49.310;8.646;2022-08-19T07:09:41;100190.91;;;25.11;62.96
19736;BME280;32064;49.310;8.646;2022-08-19T07:12:10;100187.38;;;25.10;62.33
19736;BME280;32064;49.310;8.646;2022-08-19T07:14:36;100188.03;;;25.26;62.37
19736;BME280;32064;49.310;8.646;2022-08-19T07:17:05;100189.25;;;25.37;62.23
19736;BME280;32064;49.310;8.646;2022-08-19T07:19:31;100179.25;;;25.50;62.09
19736;BME280;32064;49.310;8.646;2022-08-19T07:21:58;100174.50;;;25.52;61.53
19736;BME280;32064;49.310;8.646;2022-08-19T07:24:27;100184.66;;;25.57;61.72
19736;BME280;32064;49.310;8.646;2022-08-19T07:26:55;100179.47;;;25.56;61.54
19736;BME280;32064;49.310;8.646;2022-08-19T07:29:22;100177.22;;;25.46;61.62
19736;BME280;32064;49.310;8.646;2022-08-19T07:31:50;100177.22;;;25.46;61.47
19736;BME280;32064;49.310;8.646;2022-08-19T07:34:16;100181.34;;;25.48;61.54
19736;BME280;32064;49.310;8.646;2022-08-19T07:36:42;100183.00;;;25.49;61.33
19736;BME280;32064;49.310;8.646;2022-08-19T07:39:13;100181.94;;;25.50;61.14
19736;BME280;32064;49.310;8.646;2022-08-19T07:41:39;100185.06;;;25.54;61.46
19736;BME280;32064;49.310;8.646;2022-08-19T07:44:06;100182.56;;;25.52;61.24
19736;BME280;32064;49.310;8.646;2022-08-19T07:46:39;100187.53;;;25.62;61.34
19736;BME280;32064;49.310;8.646;2022-08-19T07:49:06;100184.63;;;25.70;61.03
19736;BME280;32064;49.310;8.646;2022-08-19T07:51:33;100183.09;;;25.81;60.69
19736;BME280;32064;49.310;8.646;2022-08-19T07:53:58;100178.97;;;25.92;60.85
19736;BME280;32064;49.310;8.646;2022-08-19T07:56:25;100181.03;;;25.90;60.44
19736;BME280;32064;49.310;8.646;2022-08-19T07:58:51;100186.00;;;25.93;60.58
19736;BME280;32064;49.310;8.646;2022-08-19T08:01:21;100188.50;;;25.94;60.36
19736;BME280;32064;49.310;8.646;2022-08-19T08:03:48;100191.56;;;25.98;60.26
19736;BME280;32064;49.310;8.646;2022-08-19T08:06:32;100189.41;;;26.20;59.43
19736;BME280;32064;49.310;8.646;2022-08-19T08:09:20;100197.78;;;26.43;58.88
19736;BME280;32064;49.310;8.646;2022-08-19T08:11:59;100191.66;;;26.93;57.99
19736;BME280;32064;49.310;8.646;2022-08-19T08:14:49;100196.00;;;27.44;55.39
19736;BME280;32064;49.310;8.646;2022-08-19T08:17:16;100196.94;;;28.12;55.46
19736;BME280;32064;49.310;8.646;2022-08-19T08:19:44;100194.91;;;28.68;53.39
19736;BME280;32064;49.310;8.646;2022-08-19T08:22:11;100191.59;;;29.31;51.68
19736;BME280;32064;49.310;8.646;2022-08-19T08:24:56;100192.66;;;30.46;49.98
19736;BME280;32064;49.310;8.646;2022-08-19T08:27:24;100191.41;;;31.94;47.20
19736;BME280;32064;49.310;8.646;2022-08-19T08:29:50;100198.81;;;33.07;45.23
19736;BME280;32064;49.310;8.646;2022-08-19T08:32:15;100205.47;;;32.94;44.57
19736;BME280;32064;49.310;8.646;2022-08-19T08:34:41;100206.91;;;32.70;45.12
19736;BME280;32064;49.310;8.646;2022-08-19T08:37:07;100214.19;;;33.61;43.56
19736;BME280;32064;49.310;8.646;2022-08-19T08:39:32;100221.38;;;34.86;41.43
19736;BME280;32064;49.310;8.646;2022-08-19T08:42:19;100213.94;;;35.48;40.63
19736;BME280;32064;49.310;8.646;2022-08-19T08:44:54;100209.91;;;36.15;38.53
19736;BME280;32064;49.310;8.646;2022-08-19T08:47:24;100217.59;;;36.03;38.84
19736;BME280;32064;49.310;8.646;2022-08-19T08:49:54;100212.09;;;37.26;37.87
19736;BME280;32064;49.310;8.646;2022-08-19T08:52:29;100218.16;;;38.19;35.97
19736;BME280;32064;49.310;8.646;2022-08-19T08:54:57;100213.84;;;38.84;33.70
19736;BME280;32064;49.310;8.646;2022-08-19T08:57:32;100212.63;;;39.09;33.34
19736;BME280;32064;49.310;8.646;2022-08-19T09:00:02;100212.91;;;39.40;33.37
19736;BME280;32064;49.310;8.646;2022-08-19T09:02:31;100200.88;;;39.50;33.36
19736;BME280;32064;49.310;8.646;2022-08-19T09:04:56;100214.53;;;39.83;32.19
19736;BME280;32064;49.310;8.646;2022-08-19T09:09:50;100216.91;;;39.76;31.71
19736;BME280;32064;49.310;8.646;2022-08-19T09:12:30;100209.34;;;38.74;32.74
19736;BME280;32064;49.310;8.646;2022-08-19T09:15:08;100198.69;;;37.20;33.99
19736;BME280;32064;49.310;8.646;2022-08-19T09:17:34;100192.09;;;36.92;34.45
19736;BME280;32064;49.310;8.646;2022-08-19T09:22:36;100196.13;;;38.76;32.69
19736;BME280;32064;49.310;8.646;2022-08-19T09:25:02;100201.63;;;39.23;31.30
19736;BME280;32064;49.310;8.646;2022-08-19T09:27:30;100199.03;;;39.87;30.50
19736;BME280;32064;49.310;8.646;2022-08-19T09:29:57;100204.53;;;39.87;30.35
19736;BME280;32064;49.310;8.646;2022-08-19T09:32:23;100199.09;;;40.23;30.11
19736;BME280;32064;49.310;8.646;2022-08-19T09:34:49;100192.00;;;40.53;29.96
19736;BME280;32064;49.310;8.646;2022-08-19T09:37:15;100192.00;;;39.39;30.51
19736;BME280;32064;49.310;8.646;2022-08-19T09:39:40;100188.03;;;38.09;32.29
19736;BME280;32064;49.310;8.646;2022-08-19T09:42:09;100191.41;;;39.10;30.83
19736;BME280;32064;49.310;8.646;2022-08-19T09:44:41;100186.91;;;40.10;29.68
19736;BME280;32064;49.310;8.646;2022-08-19T09:47:09;100189.31;;;40.03;29.58
19736;BME280;32064;49.310;8.646;2022-08-19T09:49:35;100191.94;;;39.25;29.90
19736;BME280;32064;49.310;8.646;2022-08-19T09:52:01;100191.53;;;39.04;31.06
19736;BME280;32064;49.310;8.646;2022-08-19T09:54:26;100189.47;;;36.76;33.20
19736;BME280;32064;49.310;8.646;2022-08-19T09:56:53;100197.22;;;35.49;34.18
19736;BME280;32064;49.310;8.646;2022-08-19T09:59:19;100184.16;;;37.48;32.33
19736;BME280;32064;49.310;8.646;2022-08-19T10:01:44;100187.25;;;38.79;31.22
19736;BME280;32064;49.310;8.646;2022-08-19T10:04:09;100184.44;;;39.45;29.79
19736;BME280;32064;49.310;8.646;2022-08-19T10:06:38;100186.78;;;39.65;29.74
19736;BME280;32064;49.310;8.646;2022-08-19T10:09:06;100177.78;;;40.60;28.68
19736;BME280;32064;49.310;8.646;2022-08-19T10:11:36;100188.13;;;40.99;28.67
19736;BME280;32064;49.310;8.646;2022-08-19T10:14:03;100186.19;;;40.77;28.68
19736;BME280;32064;49.310;8.646;2022-08-19T10:16:32;100189.50;;;39.10;30.65
19736;BME280;32064;49.310;8.646;2022-08-19T10:18:58;100181.16;;;38.82;29.68
19736;BME280;32064;49.310;8.646;2022-08-19T10:21:27;100187.59;;;37.06;32.42
19736;BME280;32064;49.310;8.646;2022-08-19T10:23:56;100193.06;;;35.72;32.98
19736;BME280;32064;49.310;8.646;2022-08-19T10:26:34;100199.25;;;35.08;33.98
19736;BME280;32064;49.310;8.646;2022-08-19T10:29:03;100190.75;;;37.18;31.20
19736;BME280;32064;49.310;8.646;2022-08-19T10:31:31;100189.47;;;38.26;31.09
19736;BME280;32064;49.310;8.646;2022-08-19T10:33:57;100185.09;;;39.09;29.56
19736;BME280;32064;49.310;8.646;2022-08-19T10:36:28;100185.97;;;39.79;28.56
19736;BME280;32064;49.310;8.646;2022-08-19T10:38:56;100185.34;;;40.68;27.89
19736;BME280;32064;49.310;8.646;2022-08-19T10:41:26;100181.94;;;40.71;28.33
19736;BME280;32064;49.310;8.646;2022-08-19T10:43:54;100184.72;;;39.99;28.16
19736;BME280;32064;49.310;8.646;2022-08-19T10:46:21;100179.22;;;40.57;27.67
19736;BME280;32064;49.310;8.646;2022-08-19T10:48:47;100178.28;;;40.03;28.56
19736;BME280;32064;49.310;8.646;2022-08-19T10:51:13;100169.53;;;39.32;29.29
19736;BME280;32064;49.310;8.646;2022-08-19T10:53:58;100164.44;;;39.81;28.42
19736;BME280;32064;49.310;8.646;2022-08-19T10:56:24;100175.28;;;40.13;28.29
19736;BME280;32064;49.310;8.646;2022-08-19T10:59:08;100153.94;;;40.19;28.35
19736;BME280;32064;49.310;8.646;2022-08-19T11:01:34;100156.81;;;40.81;28.37
19736;BME280;32064;49.310;8.646;2022-08-19T11:04:01;100148.03;;;40.79;27.69
19736;BME280;32064;49.310;8.646;2022-08-19T11:06:27;100142.22;;;39.49;28.04
19736;BME280;32064;49.310;8.646;2022-08-19T11:08:54;100141.06;;;39.78;27.66
19736;BME280;32064;49.310;8.646;2022-08-19T11:11:21;100119.00;;;40.14;27.57
19736;BME280;32064;49.310;8.646;2022-08-19T11:13:47;100123.34;;;40.52;26.75
19736;BME280;32064;49.310;8.646;2022-08-19T11:16:20;100126.66;;;39.81;27.12
19736;BME280;32064;49.310;8.646;2022-08-19T11:18:52;100121.44;;;39.80;28.19
19736;BME280;32064;49.310;8.646;2022-08-19T11:23:47;100124.13;;;38.36;29.07
19736;BME280;32064;49.310;8.646;2022-08-19T11:26:13;100120.00;;;38.53;29.83
19736;BME280;32064;49.310;8.646;2022-08-19T11:28:40;100130.94;;;37.39;31.23
19736;BME280;32064;49.310;8.646;2022-08-19T11:31:13;100122.50;;;36.43;31.64
19736;BME280;32064;49.310;8.646;2022-08-19T11:33:39;100126.47;;;35.87;32.41
19736;BME280;32064;49.310;8.646;2022-08-19T11:36:04;100135.81;;;36.26;31.80
19736;BME280;32064;49.310;8.646;2022-08-19T11:38:30;100119.59;;;36.29;32.29
19736;BME280;32064;49.310;8.646;2022-08-19T11:41:01;100119.31;;;36.70;31.96
19736;BME280;32064;49.310;8.646;2022-08-19T11:43:28;100115.44;;;36.71;31.72
19736;BME280;32064;49.310;8.646;2022-08-19T11:45:55;100122.09;;;36.26;32.36
19736;BME280;32064;49.310;8.646;2022-08-19T11:48:21;100101.63;;;36.18;32.58
19736;BME280;32064;49.310;8.646;2022-08-19T11:50:51;100109.56;;;35.70;32.48
19736;BME280;32064;49.310;8.646;2022-08-19T11:53:18;100109.91;;;35.48;32.91
19736;BME280;32064;49.310;8.646;2022-08-19T11:55:48;100108.41;;;35.81;33.32
19736;BME280;32064;49.310;8.646;2022-08-19T11:58:16;100121.16;;;36.06;32.71
19736;BME280;32064;49.310;8.646;2022-08-19T12:00:43;100111.53;;;35.59;33.10
19736;BME280;32064;49.310;8.646;2022-08-19T12:03:11;100108.59;;;35.35;32.51
19736;BME280;32064;49.310;8.646;2022-08-19T12:05:38;100108.59;;;35.30;32.58
19736;BME280;32064;49.310;8.646;2022-08-19T12:08:04;100117.13;;;35.18;33.50
19736;BME280;32064;49.310;8.646;2022-08-19T12:10:29;100115.53;;;34.92;34.08
19736;BME280;32064;49.310;8.646;2022-08-19T12:12:55;100116.91;;;34.23;34.50
19736;BME280;32064;49.310;8.646;2022-08-19T12:15:20;100119.50;;;33.76;35.03
19736;BME280;32064;49.310;8.646;2022-08-19T12:17:46;100124.34;;;33.59;35.51
19736;BME280;32064;49.310;8.646;2022-08-19T12:20:12;100123.91;;;33.25;34.88
19736;BME280;32064;49.310;8.646;2022-08-19T12:22:42;100130.13;;;33.20;36.01
19736;BME280;32064;49.310;8.646;2022-08-19T12:25:10;100124.41;;;33.17;35.17
19736;BME280;32064;49.310;8.646;2022-08-19T12:27:35;100123.59;;;33.16;35.51
19736;BME280;32064;49.310;8.646;2022-08-19T12:30:02;100118.69;;;33.18;35.87
19736;BME280;32064;49.310;8.646;2022-08-19T12:32:28;100117.81;;;33.07;35.87
19736;BME280;32064;49.310;8.646;2022-08-19T12:34:53;100123.09;;;32.87;36.25
19736;BME280;32064;49.310;8.646;2022-08-19T12:37:19;100121.59;;;32.69;36.15
19736;BME280;32064;49.310;8.646;2022-08-19T12:39:45;100124.34;;;32.42;36.15
19736;BME280;32064;49.310;8.646;2022-08-19T12:42:12;100116.59;;;32.56;36.45
19736;BME280;32064;49.310;8.646;2022-08-19T12:44:40;100117.97;;;32.96;35.06
19736;BME280;32064;49.310;8.646;2022-08-19T12:47:07;100117.97;;;33.38;36.43
19736;BME280;32064;49.310;8.646;2022-08-19T12:49:33;100124.94;;;33.66;34.88
19736;BME280;32064;49.310;8.646;2022-08-19T12:52:04;100126.34;;;33.79;35.25
19736;BME280;32064;49.310;8.646;2022-08-19T12:54:30;100128.66;;;33.50;35.52
19736;BME280;32064;49.310;8.646;2022-08-19T12:56:57;100135.00;;;33.08;34.88
19736;BME280;32064;49.310;8.646;2022-08-19T12:59:22;100130.47;;;32.92;34.73
19736;BME280;32064;49.310;8.646;2022-08-19T13:01:48;100131.44;;;32.75;35.47